Terminal Aerodrome Forecast
Issued by NWS North Platte, NE

Home | Current Version | Previous Version | Graphics & Text | Print | Product List | Glossary On
Versions: 1 2 3 4 5 6 7 8 9 10 11 12 13 14 15 16 17 18 19 20 21
000
FTUS43 KLBF 200343 AAB
TAFVTN
TAF AMD
KVTN 200343Z 2004/2024 12012KT P6SM BKN250
     FM201400 14013G20KT P6SM BKN100
     FM201800 15013G20KT 6SM -SHRA OVC050
     FM202100 12014G21KT 6SM -RA SCT020 OVC035=

USA.gov is the U.S. government's official web portal to all federal, state and local government web resources and services.